sensor_id;sensor_type;location;lat;lon;timestamp;P1;durP1;ratioP1;P2;durP2;ratioP2
31464;SDS011;18089;47.428;15.006;2022-10-31T00:00:14;30.00;;;18.05;;
31464;SDS011;18089;47.428;15.006;2022-10-31T00:02:48;26.33;;;19.33;;
31464;SDS011;18089;47.428;15.006;2022-10-31T00:05:20;30.20;;;18.38;;
31464;SDS011;18089;47.428;15.006;2022-10-31T00:07:52;29.30;;;18.80;;
31464;SDS011;18089;47.428;15.006;2022-10-31T00:10:24;23.88;;;18.27;;
31464;SDS011;18089;47.428;15.006;2022-10-31T00:12:56;31.73;;;18.40;;
31464;SDS011;18089;47.428;15.006;2022-10-31T00:15:28;25.67;;;17.58;;
31464;SDS011;18089;47.428;15.006;2022-10-31T00:18:02;25.02;;;16.15;;
31464;SDS011;18089;47.428;15.006;2022-10-31T00:20:34;24.65;;;16.50;;
31464;SDS011;18089;47.428;15.006;2022-10-31T00:23:06;36.28;;;18.08;;
31464;SDS011;18089;47.428;15.006;2022-10-31T00:25:39;30.25;;;16.63;;
31464;SDS011;18089;47.428;15.006;2022-10-31T00:28:11;26.33;;;15.85;;
31464;SDS011;18089;47.428;15.006;2022-10-31T00:30:43;21.15;;;14.55;;
31464;SDS011;18089;47.428;15.006;2022-10-31T00:33:16;23.45;;;15.43;;
31464;SDS011;18089;47.428;15.006;2022-10-31T00:35:49;27.08;;;15.10;;
31464;SDS011;18089;47.428;15.006;2022-10-31T00:38:21;22.95;;;14.85;;
31464;SDS011;18089;47.428;15.006;2022-10-31T00:40:54;24.85;;;15.77;;
31464;SDS011;18089;47.428;15.006;2022-10-31T00:43:26;31.50;;;17.98;;
31464;SDS011;18089;47.428;15.006;2022-10-31T00:45:58;31.45;;;18.02;;
31464;SDS011;18089;47.428;15.006;2022-10-31T00:48:31;27.13;;;16.98;;
31464;SDS011;18089;47.428;15.006;2022-10-31T00:51:03;25.20;;;16.65;;
31464;SDS011;18089;47.428;15.006;2022-10-31T00:53:36;26.05;;;16.75;;
31464;SDS011;18089;47.428;15.006;2022-10-31T00:56:08;24.17;;;16.15;;
31464;SDS011;18089;47.428;15.006;2022-10-31T00:58:40;28.75;;;15.57;;
31464;SDS011;18089;47.428;15.006;2022-10-31T01:01:12;24.48;;;14.75;;
31464;SDS011;18089;47.428;15.006;2022-10-31T01:03:45;22.50;;;15.13;;
31464;SDS011;18089;47.428;15.006;2022-10-31T01:06:17;24.70;;;14.65;;
31464;SDS011;18089;47.428;15.006;2022-10-31T01:08:49;28.00;;;16.50;;
31464;SDS011;18089;47.428;15.006;2022-10-31T01:11:22;32.40;;;16.58;;
31464;SDS011;18089;47.428;15.006;2022-10-31T01:13:54;33.25;;;17.45;;
31464;SDS011;18089;47.428;15.006;2022-10-31T01:16:27;28.27;;;16.80;;
31464;SDS011;18089;47.428;15.006;2022-10-31T01:19:01;26.45;;;16.15;;
31464;SDS011;18089;47.428;15.006;2022-10-31T01:21:33;30.10;;;16.33;;
31464;SDS011;18089;47.428;15.006;2022-10-31T01:24:05;24.17;;;15.38;;
31464;SDS011;18089;47.428;15.006;2022-10-31T01:26:38;26.73;;;15.88;;
31464;SDS011;18089;47.428;15.006;2022-10-31T01:29:10;32.05;;;17.77;;
31464;SDS011;18089;47.428;15.006;2022-10-31T01:31:42;31.85;;;19.13;;
31464;SDS011;18089;47.428;15.006;2022-10-31T01:34:16;28.90;;;17.58;;
31464;SDS011;18089;47.428;15.006;2022-10-31T01:36:48;31.30;;;17.67;;
31464;SDS011;18089;47.428;15.006;2022-10-31T01:39:21;30.92;;;17.05;;
31464;SDS011;18089;47.428;15.006;2022-10-31T01:41:54;33.80;;;18.20;;
31464;SDS011;18089;47.428;15.006;2022-10-31T01:44:48;28.00;;;17.25;;
31464;SDS011;18089;47.428;15.006;2022-10-31T01:47:29;28.02;;;16.65;;
31464;SDS011;18089;47.428;15.006;2022-10-31T01:50:15;29.15;;;16.77;;
31464;SDS011;18089;47.428;15.006;2022-10-31T01:52:56;26.60;;;16.58;;
31464;SDS011;18089;47.428;15.006;2022-10-31T01:55:29;22.15;;;15.15;;
31464;SDS011;18089;47.428;15.006;2022-10-31T01:58:04;25.25;;;15.77;;
31464;SDS011;18089;47.428;15.006;2022-10-31T02:00:38;21.30;;;14.50;;
31464;SDS011;18089;47.428;15.006;2022-10-31T02:03:12;21.98;;;13.98;;
31464;SDS011;18089;47.428;15.006;2022-10-31T02:05:45;24.02;;;14.95;;
31464;SDS011;18089;47.428;15.006;2022-10-31T02:08:18;19.13;;;14.02;;
31464;SDS011;18089;47.428;15.006;2022-10-31T02:10:53;20.63;;;14.45;;
31464;SDS011;18089;47.428;15.006;2022-10-31T02:13:26;20.52;;;14.88;;
31464;SDS011;18089;47.428;15.006;2022-10-31T02:15:59;19.60;;;14.07;;
31464;SDS011;18089;47.428;15.006;2022-10-31T02:18:31;28.48;;;15.05;;
31464;SDS011;18089;47.428;15.006;2022-10-31T02:21:07;24.55;;;15.10;;
31464;SDS011;18089;47.428;15.006;2022-10-31T02:26:58;27.70;;;17.40;;
31464;SDS011;18089;47.428;15.006;2022-10-31T02:32:42;22.02;;;15.18;;
31464;SDS011;18089;47.428;15.006;2022-10-31T02:35:22;26.23;;;15.75;;
31464;SDS011;18089;47.428;15.006;2022-10-31T02:38:05;19.05;;;14.05;;
31464;SDS011;18089;47.428;15.006;2022-10-31T02:40:45;22.02;;;15.65;;
31464;SDS011;18089;47.428;15.006;2022-10-31T02:43:25;29.52;;;15.60;;
31464;SDS011;18089;47.428;15.006;2022-10-31T02:46:01;25.13;;;15.23;;
31464;SDS011;18089;47.428;15.006;2022-10-31T02:48:40;25.08;;;15.75;;
31464;SDS011;18089;47.428;15.006;2022-10-31T02:51:13;29.35;;;15.45;;
31464;SDS011;18089;47.428;15.006;2022-10-31T02:53:46;25.83;;;15.85;;
31464;SDS011;18089;47.428;15.006;2022-10-31T02:56:18;23.30;;;15.93;;
31464;SDS011;18089;47.428;15.006;2022-10-31T02:58:51;27.67;;;16.55;;
31464;SDS011;18089;47.428;15.006;2022-10-31T03:04:43;17.83;;;13.65;;
31464;SDS011;18089;47.428;15.006;2022-10-31T03:07:29;25.10;;;15.25;;
31464;SDS011;18089;47.428;15.006;2022-10-31T03:10:07;20.60;;;15.73;;
31464;SDS011;18089;47.428;15.006;2022-10-31T03:12:49;28.02;;;14.95;;
31464;SDS011;18089;47.428;15.006;2022-10-31T03:15:25;21.15;;;15.68;;
31464;SDS011;18089;47.428;15.006;2022-10-31T03:18:00;26.60;;;17.50;;
31464;SDS011;18089;47.428;15.006;2022-10-31T03:20:38;22.83;;;16.80;;
31464;SDS011;18089;47.428;15.006;2022-10-31T03:23:12;24.88;;;16.23;;
31464;SDS011;18089;47.428;15.006;2022-10-31T03:25:45;28.23;;;16.75;;
31464;SDS011;18089;47.428;15.006;2022-10-31T03:28:18;25.17;;;17.33;;
31464;SDS011;18089;47.428;15.006;2022-10-31T03:30:55;26.67;;;16.48;;
31464;SDS011;18089;47.428;15.006;2022-10-31T03:33:28;23.17;;;15.40;;
31464;SDS011;18089;47.428;15.006;2022-10-31T03:36:06;32.95;;;16.48;;
31464;SDS011;18089;47.428;15.006;2022-10-31T03:38:40;22.92;;;15.93;;
31464;SDS011;18089;47.428;15.006;2022-10-31T03:41:14;22.95;;;15.55;;
31464;SDS011;18089;47.428;15.006;2022-10-31T03:43:51;26.45;;;16.10;;
31464;SDS011;18089;47.428;15.006;2022-10-31T03:46:26;17.67;;;14.32;;
31464;SDS011;18089;47.428;15.006;2022-10-31T03:48:59;19.77;;;14.45;;
31464;SDS011;18089;47.428;15.006;2022-10-31T03:51:33;24.00;;;15.05;;
31464;SDS011;18089;47.428;15.006;2022-10-31T03:54:11;21.67;;;14.32;;
31464;SDS011;18089;47.428;15.006;2022-10-31T03:56:48;20.17;;;15.63;;
31464;SDS011;18089;47.428;15.006;2022-10-31T03:59:24;25.23;;;14.65;;
31464;SDS011;18089;47.428;15.006;2022-10-31T04:01:58;17.40;;;13.83;;
31464;SDS011;18089;47.428;15.006;2022-10-31T04:04:33;20.33;;;14.43;;
31464;SDS011;18089;47.428;15.006;2022-10-31T04:07:07;18.70;;;14.50;;
31464;SDS011;18089;47.428;15.006;2022-10-31T04:09:41;20.98;;;14.88;;
31464;SDS011;18089;47.428;15.006;2022-10-31T04:12:16;18.20;;;13.90;;
31464;SDS011;18089;47.428;15.006;2022-10-31T04:14:48;17.45;;;14.15;;
31464;SDS011;18089;47.428;15.006;2022-10-31T04:17:21;22.13;;;15.32;;
31464;SDS011;18089;47.428;15.006;2022-10-31T04:19:54;20.13;;;15.20;;
31464;SDS011;18089;47.428;15.006;2022-10-31T04:22:28;20.63;;;14.67;;
31464;SDS011;18089;47.428;15.006;2022-10-31T04:25:00;19.73;;;15.67;;
31464;SDS011;18089;47.428;15.006;2022-10-31T04:27:32;19.57;;;14.10;;
31464;SDS011;18089;47.428;15.006;2022-10-31T04:30:04;20.67;;;14.05;;
31464;SDS011;18089;47.428;15.006;2022-10-31T04:32:37;19.60;;;13.75;;
31464;SDS011;18089;47.428;15.006;2022-10-31T04:35:09;21.70;;;14.57;;
31464;SDS011;18089;47.428;15.006;2022-10-31T04:37:43;18.67;;;15.43;;
31464;SDS011;18089;47.428;15.006;2022-10-31T04:40:15;20.90;;;15.13;;
31464;SDS011;18089;47.428;15.006;2022-10-31T04:42:47;23.08;;;15.20;;
31464;SDS011;18089;47.428;15.006;2022-10-31T04:45:19;17.77;;;15.15;;
31464;SDS011;18089;47.428;15.006;2022-10-31T04:47:51;28.80;;;16.13;;
31464;SDS011;18089;47.428;15.006;2022-10-31T04:50:23;18.03;;;15.63;;
31464;SDS011;18089;47.428;15.006;2022-10-31T04:52:56;19.63;;;15.23;;
31464;SDS011;18089;47.428;15.006;2022-10-31T04:55:29;19.50;;;14.80;;
31464;SDS011;18089;47.428;15.006;2022-10-31T04:58:01;19.30;;;14.47;;
31464;SDS011;18089;47.428;15.006;2022-10-31T05:00:33;20.98;;;15.55;;
31464;SDS011;18089;47.428;15.006;2022-10-31T05:03:05;20.53;;;14.83;;
31464;SDS011;18089;47.428;15.006;2022-10-31T05:05:37;21.50;;;15.40;;
31464;SDS011;18089;47.428;15.006;2022-10-31T05:08:11;22.03;;;16.00;;
31464;SDS011;18089;47.428;15.006;2022-10-31T05:10:43;24.67;;;16.87;;
31464;SDS011;18089;47.428;15.006;2022-10-31T05:13:15;27.97;;;17.83;;
31464;SDS011;18089;47.428;15.006;2022-10-31T05:15:47;24.23;;;17.20;;
31464;SDS011;18089;47.428;15.006;2022-10-31T05:18:19;26.70;;;17.37;;
31464;SDS011;18089;47.428;15.006;2022-10-31T05:20:51;28.37;;;17.67;;
31464;SDS011;18089;47.428;15.006;2022-10-31T05:23:24;28.37;;;17.57;;
31464;SDS011;18089;47.428;15.006;2022-10-31T05:25:56;27.23;;;17.93;;
31464;SDS011;18089;47.428;15.006;2022-10-31T05:28:28;44.07;;;19.33;;
31464;SDS011;18089;47.428;15.006;2022-10-31T05:31:01;27.40;;;18.37;;
31464;SDS011;18089;47.428;15.006;2022-10-31T05:33:33;29.93;;;18.93;;
31464;SDS011;18089;47.428;15.006;2022-10-31T05:36:05;25.50;;;18.00;;
31464;SDS011;18089;47.428;15.006;2022-10-31T05:38:38;34.23;;;18.47;;
31464;SDS011;18089;47.428;15.006;2022-10-31T05:41:10;31.97;;;18.37;;
31464;SDS011;18089;47.428;15.006;2022-10-31T05:43:42;28.87;;;18.90;;
31464;SDS011;18089;47.428;15.006;2022-10-31T05:46:15;34.03;;;17.75;;
31464;SDS011;18089;47.428;15.006;2022-10-31T05:48:47;25.47;;;18.23;;
31464;SDS011;18089;47.428;15.006;2022-10-31T05:51:19;31.90;;;18.83;;
31464;SDS011;18089;47.428;15.006;2022-10-31T05:53:52;33.67;;;18.63;;
31464;SDS011;18089;47.428;15.006;2022-10-31T05:56:24;45.23;;;21.80;;
31464;SDS011;18089;47.428;15.006;2022-10-31T05:58:56;28.23;;;19.73;;
31464;SDS011;18089;47.428;15.006;2022-10-31T06:01:28;31.48;;;20.20;;
31464;SDS011;18089;47.428;15.006;2022-10-31T06:04:00;36.53;;;20.30;;
31464;SDS011;18089;47.428;15.006;2022-10-31T06:06:32;36.30;;;20.53;;
31464;SDS011;18089;47.428;15.006;2022-10-31T06:09:06;29.00;;;19.60;;
31464;SDS011;18089;47.428;15.006;2022-10-31T06:11:38;33.53;;;20.17;;
31464;SDS011;18089;47.428;15.006;2022-10-31T06:14:10;30.73;;;19.70;;
31464;SDS011;18089;47.428;15.006;2022-10-31T06:16:42;37.78;;;21.30;;
31464;SDS011;18089;47.428;15.006;2022-10-31T06:19:14;38.58;;;21.52;;
31464;SDS011;18089;47.428;15.006;2022-10-31T06:21:46;34.03;;;21.10;;
31464;SDS011;18089;47.428;15.006;2022-10-31T06:24:19;36.80;;;20.85;;
31464;SDS011;18089;47.428;15.006;2022-10-31T06:26:51;38.20;;;21.02;;
31464;SDS011;18089;47.428;15.006;2022-10-31T06:29:23;47.00;;;22.70;;
31464;SDS011;18089;47.428;15.006;2022-10-31T06:31:55;35.60;;;21.97;;
31464;SDS011;18089;47.428;15.006;2022-10-31T06:34:27;44.03;;;23.17;;
31464;SDS011;18089;47.428;15.006;2022-10-31T06:36:59;50.78;;;25.30;;
31464;SDS011;18089;47.428;15.006;2022-10-31T06:39:32;45.90;;;25.00;;
31464;SDS011;18089;47.428;15.006;2022-10-31T06:42:05;44.07;;;25.03;;
31464;SDS011;18089;47.428;15.006;2022-10-31T06:44:37;41.42;;;24.15;;
31464;SDS011;18089;47.428;15.006;2022-10-31T06:47:09;44.35;;;23.73;;
31464;SDS011;18089;47.428;15.006;2022-10-31T06:49:41;42.90;;;22.65;;
31464;SDS011;18089;47.428;15.006;2022-10-31T06:52:13;41.17;;;22.38;;
31464;SDS011;18089;47.428;15.006;2022-10-31T06:54:46;32.88;;;22.02;;
31464;SDS011;18089;47.428;15.006;2022-10-31T06:57:18;43.13;;;22.23;;
31464;SDS011;18089;47.428;15.006;2022-10-31T06:59:50;37.08;;;21.83;;
31464;SDS011;18089;47.428;15.006;2022-10-31T07:02:22;37.25;;;22.00;;
31464;SDS011;18089;47.428;15.006;2022-10-31T07:04:54;34.67;;;22.13;;
31464;SDS011;18089;47.428;15.006;2022-10-31T07:07:26;31.92;;;19.85;;
31464;SDS011;18089;47.428;15.006;2022-10-31T07:10:00;31.50;;;17.33;;
31464;SDS011;18089;47.428;15.006;2022-10-31T07:12:32;31.23;;;17.48;;
31464;SDS011;18089;47.428;15.006;2022-10-31T07:15:04;29.85;;;18.17;;
31464;SDS011;18089;47.428;15.006;2022-10-31T07:17:37;33.17;;;20.85;;
31464;SDS011;18089;47.428;15.006;2022-10-31T07:20:09;32.20;;;21.08;;
31464;SDS011;18089;47.428;15.006;2022-10-31T07:22:41;30.67;;;22.00;;
31464;SDS011;18089;47.428;15.006;2022-10-31T07:25:15;39.63;;;23.60;;
31464;SDS011;18089;47.428;15.006;2022-10-31T07:27:47;38.85;;;25.48;;
31464;SDS011;18089;47.428;15.006;2022-10-31T07:30:19;44.90;;;24.08;;
31464;SDS011;18089;47.428;15.006;2022-10-31T07:32:51;39.22;;;23.92;;
31464;SDS011;18089;47.428;15.006;2022-10-31T07:35:24;36.45;;;22.23;;
31464;SDS011;18089;47.428;15.006;2022-10-31T07:37:57;27.25;;;18.15;;
31464;SDS011;18089;47.428;15.006;2022-10-31T07:40:38;30.25;;;17.20;;
31464;SDS011;18089;47.428;15.006;2022-10-31T07:43:11;24.45;;;16.45;;
31464;SDS011;18089;47.428;15.006;2022-10-31T07:45:43;30.70;;;18.33;;
31464;SDS011;18089;47.428;15.006;2022-10-31T07:48:15;30.25;;;19.45;;
31464;SDS011;18089;47.428;15.006;2022-10-31T07:50:47;29.20;;;19.08;;
31464;SDS011;18089;47.428;15.006;2022-10-31T07:53:19;28.95;;;16.60;;
31464;SDS011;18089;47.428;15.006;2022-10-31T07:55:52;22.02;;;15.60;;
31464;SDS011;18089;47.428;15.006;2022-10-31T07:58:26;23.08;;;16.02;;
31464;SDS011;18089;47.428;15.006;2022-10-31T08:00:58;23.23;;;13.98;;
31464;SDS011;18089;47.428;15.006;2022-10-31T08:03:30;20.65;;;14.63;;
31464;SDS011;18089;47.428;15.006;2022-10-31T08:06:02;22.85;;;14.13;;
31464;SDS011;18089;47.428;15.006;2022-10-31T08:08:34;21.08;;;13.38;;
31464;SDS011;18089;47.428;15.006;2022-10-31T08:11:07;22.42;;;12.82;;
31464;SDS011;18089;47.428;15.006;2022-10-31T08:13:39;23.98;;;12.88;;
31464;SDS011;18089;47.428;15.006;2022-10-31T08:16:12;20.65;;;11.73;;
31464;SDS011;18089;47.428;15.006;2022-10-31T08:18:44;16.92;;;11.95;;
31464;SDS011;18089;47.428;15.006;2022-10-31T08:21:17;23.65;;;13.18;;
31464;SDS011;18089;47.428;15.006;2022-10-31T08:23:49;22.35;;;13.93;;
31464;SDS011;18089;47.428;15.006;2022-10-31T08:26:22;23.33;;;12.73;;
31464;SDS011;18089;47.428;15.006;2022-10-31T08:28:54;17.13;;;10.40;;
31464;SDS011;18089;47.428;15.006;2022-10-31T08:31:27;21.73;;;11.52;;
31464;SDS011;18089;47.428;15.006;2022-10-31T08:33:59;15.50;;;10.68;;
31464;SDS011;18089;47.428;15.006;2022-10-31T08:36:31;20.77;;;10.60;;
31464;SDS011;18089;47.428;15.006;2022-10-31T08:39:03;14.80;;;10.02;;
31464;SDS011;18089;47.428;15.006;2022-10-31T08:41:36;15.18;;;10.20;;
31464;SDS011;18089;47.428;15.006;2022-10-31T08:44:08;16.88;;;9.90;;
31464;SDS011;18089;47.428;15.006;2022-10-31T08:46:40;18.50;;;10.10;;
31464;SDS011;18089;47.428;15.006;2022-10-31T08:49:12;18.25;;;12.00;;
31464;SDS011;18089;47.428;15.006;2022-10-31T08:51:46;18.33;;;10.85;;
31464;SDS011;18089;47.428;15.006;2022-10-31T08:54:18;14.15;;;9.48;;
31464;SDS011;18089;47.428;15.006;2022-10-31T08:56:54;14.45;;;9.88;;
31464;SDS011;18089;47.428;15.006;2022-10-31T08:59:26;14.95;;;9.93;;
31464;SDS011;18089;47.428;15.006;2022-10-31T09:01:58;20.83;;;10.23;;
31464;SDS011;18089;47.428;15.006;2022-10-31T09:04:30;13.27;;;8.57;;
31464;SDS011;18089;47.428;15.006;2022-10-31T09:07:02;13.02;;;8.60;;
31464;SDS011;18089;47.428;15.006;2022-10-31T09:09:34;14.35;;;8.70;;
31464;SDS011;18089;47.428;15.006;2022-10-31T09:12:08;22.20;;;8.63;;
31464;SDS011;18089;47.428;15.006;2022-10-31T09:14:40;13.77;;;8.25;;
31464;SDS011;18089;47.428;15.006;2022-10-31T09:17:12;13.32;;;8.25;;
31464;SDS011;18089;47.428;15.006;2022-10-31T09:19:44;13.07;;;8.50;;
31464;SDS011;18089;47.428;15.006;2022-10-31T09:22:16;13.73;;;8.77;;
31464;SDS011;18089;47.428;15.006;2022-10-31T09:24:48;13.80;;;8.65;;
31464;SDS011;18089;47.428;15.006;2022-10-31T09:27:21;17.50;;;7.90;;
31464;SDS011;18089;47.428;15.006;2022-10-31T09:29:53;16.05;;;7.55;;
31464;SDS011;18089;47.428;15.006;2022-10-31T09:32:25;16.35;;;7.82;;
31464;SDS011;18089;47.428;15.006;2022-10-31T09:34:57;18.25;;;8.27;;
31464;SDS011;18089;47.428;15.006;2022-10-31T09:37:29;19.08;;;7.88;;
31464;SDS011;18089;47.428;15.006;2022-10-31T09:40:01;13.65;;;8.05;;
31464;SDS011;18089;47.428;15.006;2022-10-31T09:42:38;19.00;;;7.55;;
31464;SDS011;18089;47.428;15.006;2022-10-31T09:45:18;15.05;;;7.95;;
31464;SDS011;18089;47.428;15.006;2022-10-31T09:47:58;15.60;;;8.05;;
31464;SDS011;18089;47.428;15.006;2022-10-31T09:50:46;13.02;;;7.75;;
31464;SDS011;18089;47.428;15.006;2022-10-31T09:53:23;17.67;;;7.07;;
31464;SDS011;18089;47.428;15.006;2022-10-31T09:55:57;14.38;;;7.03;;
31464;SDS011;18089;47.428;15.006;2022-10-31T09:58:31;17.85;;;7.22;;
31464;SDS011;18089;47.428;15.006;2022-10-31T10:01:04;21.08;;;9.20;;
31464;SDS011;18089;47.428;15.006;2022-10-31T10:03:38;10.75;;;7.15;;
31464;SDS011;18089;47.428;15.006;2022-10-31T10:06:13;18.88;;;9.80;;
31464;SDS011;18089;47.428;15.006;2022-10-31T10:08:46;14.80;;;6.93;;
31464;SDS011;18089;47.428;15.006;2022-10-31T10:11:23;15.35;;;7.13;;
31464;SDS011;18089;47.428;15.006;2022-10-31T10:14:06;18.58;;;7.30;;
31464;SDS011;18089;47.428;15.006;2022-10-31T10:16:55;11.00;;;7.28;;
31464;SDS011;18089;47.428;15.006;2022-10-31T10:19:50;15.98;;;6.68;;
31464;SDS011;18089;47.428;15.006;2022-10-31T10:22:29;17.83;;;7.70;;
31464;SDS011;18089;47.428;15.006;2022-10-31T10:25:14;11.18;;;6.63;;
31464;SDS011;18089;47.428;15.006;2022-10-31T10:27:52;17.77;;;6.90;;
31464;SDS011;18089;47.428;15.006;2022-10-31T10:30:32;26.15;;;13.55;;
31464;SDS011;18089;47.428;15.006;2022-10-31T10:33:09;28.83;;;14.95;;
31464;SDS011;18089;47.428;15.006;2022-10-31T10:35:43;15.10;;;6.82;;
31464;SDS011;18089;47.428;15.006;2022-10-31T10:38:20;12.95;;;6.82;;
31464;SDS011;18089;47.428;15.006;2022-10-31T10:40:58;16.27;;;6.80;;
31464;SDS011;18089;47.428;15.006;2022-10-31T10:43:33;9.07;;;6.45;;
31464;SDS011;18089;47.428;15.006;2022-10-31T10:46:16;14.75;;;6.45;;
31464;SDS011;18089;47.428;15.006;2022-10-31T10:49:12;13.90;;;6.55;;
31464;SDS011;18089;47.428;15.006;2022-10-31T10:51:50;14.35;;;6.60;;
31464;SDS011;18089;47.428;15.006;2022-10-31T10:54:36;15.75;;;7.05;;
31464;SDS011;18089;47.428;15.006;2022-10-31T11:00:14;14.60;;;6.53;;
31464;SDS011;18089;47.428;15.006;2022-10-31T11:02:50;21.92;;;7.43;;
31464;SDS011;18089;47.428;15.006;2022-10-31T11:05:24;19.40;;;7.97;;
31464;SDS011;18089;47.428;15.006;2022-10-31T11:07:59;14.82;;;6.32;;
31464;SDS011;18089;47.428;15.006;2022-10-31T11:10:31;11.70;;;5.43;;
31464;SDS011;18089;47.428;15.006;2022-10-31T11:13:05;15.45;;;5.43;;
31464;SDS011;18089;47.428;15.006;2022-10-31T11:15:51;10.93;;;5.07;;
31464;SDS011;18089;47.428;15.006;2022-10-31T11:18:29;12.02;;;4.72;;
31464;SDS011;18089;47.428;15.006;2022-10-31T11:21:02;14.55;;;4.65;;
31464;SDS011;18089;47.428;15.006;2022-10-31T11:23:35;12.40;;;5.20;;
31464;SDS011;18089;47.428;15.006;2022-10-31T11:26:18;13.18;;;5.15;;
31464;SDS011;18089;47.428;15.006;2022-10-31T11:28:56;9.38;;;4.28;;
31464;SDS011;18089;47.428;15.006;2022-10-31T11:31:28;9.48;;;4.18;;
31464;SDS011;18089;47.428;15.006;2022-10-31T11:34:03;13.05;;;4.05;;
31464;SDS011;18089;47.428;15.006;2022-10-31T11:36:37;14.18;;;4.53;;
31464;SDS011;18089;47.428;15.006;2022-10-31T11:39:13;15.77;;;4.90;;
31464;SDS011;18089;47.428;15.006;2022-10-31T11:41:47;16.67;;;4.45;;
31464;SDS011;18089;47.428;15.006;2022-10-31T11:44:21;17.05;;;5.70;;
31464;SDS011;18089;47.428;15.006;2022-10-31T11:46:55;16.23;;;6.60;;
31464;SDS011;18089;47.428;15.006;2022-10-31T11:49:30;22.58;;;5.60;;
31464;SDS011;18089;47.428;15.006;2022-10-31T11:52:04;14.30;;;5.13;;
31464;SDS011;18089;47.428;15.006;2022-10-31T11:54:39;12.32;;;5.22;;
31464;SDS011;18089;47.428;15.006;2022-10-31T11:57:25;13.23;;;5.00;;
31464;SDS011;18089;47.428;15.006;2022-10-31T12:00:01;29.88;;;15.05;;
31464;SDS011;18089;47.428;15.006;2022-10-31T12:02:35;22.70;;;8.25;;
31464;SDS011;18089;47.428;15.006;2022-10-31T12:05:10;13.52;;;4.75;;
31464;SDS011;18089;47.428;15.006;2022-10-31T12:07:50;16.42;;;5.22;;
31464;SDS011;18089;47.428;15.006;2022-10-31T12:10:23;14.13;;;5.47;;
31464;SDS011;18089;47.428;15.006;2022-10-31T12:13:01;14.23;;;4.72;;
31464;SDS011;18089;47.428;15.006;2022-10-31T12:15:39;12.30;;;4.97;;
31464;SDS011;18089;47.428;15.006;2022-10-31T12:18:29;11.05;;;5.60;;
31464;SDS011;18089;47.428;15.006;2022-10-31T12:21:14;10.65;;;5.03;;
31464;SDS011;18089;47.428;15.006;2022-10-31T12:24:02;16.35;;;5.80;;
31464;SDS011;18089;47.428;15.006;2022-10-31T12:26:41;16.35;;;6.38;;
31464;SDS011;18089;47.428;15.006;2022-10-31T12:29:24;12.70;;;5.60;;
31464;SDS011;18089;47.428;15.006;2022-10-31T12:32:14;18.30;;;6.40;;
31464;SDS011;18089;47.428;15.006;2022-10-31T12:38:10;15.80;;;6.07;;
31464;SDS011;18089;47.428;15.006;2022-10-31T12:41:12;15.52;;;6.90;;
31464;SDS011;18089;47.428;15.006;2022-10-31T12:43:56;13.52;;;5.28;;
31464;SDS011;18089;47.428;15.006;2022-10-31T12:46:47;15.05;;;6.13;;
31464;SDS011;18089;47.428;15.006;2022-10-31T12:49:30;25.67;;;7.10;;
31464;SDS011;18089;47.428;15.006;2022-10-31T12:52:17;26.70;;;7.47;;
31464;SDS011;18089;47.428;15.006;2022-10-31T12:55:09;20.98;;;6.07;;
31464;SDS011;18089;47.428;15.006;2022-10-31T12:58:04;21.25;;;6.80;;
31464;SDS011;18089;47.428;15.006;2022-10-31T13:00:42;19.10;;;6.60;;
31464;SDS011;18089;47.428;15.006;2022-10-31T13:03:21;18.33;;;6.80;;
31464;SDS011;18089;47.428;15.006;2022-10-31T13:05:57;22.48;;;7.75;;
31464;SDS011;18089;47.428;15.006;2022-10-31T13:08:33;18.92;;;6.85;;
31464;SDS011;18089;47.428;15.006;2022-10-31T13:11:09;19.38;;;7.07;;
31464;SDS011;18089;47.428;15.006;2022-10-31T13:13:43;16.42;;;5.90;;
31464;SDS011;18089;47.428;15.006;2022-10-31T13:16:17;16.75;;;6.55;;
31464;SDS011;18089;47.428;15.006;2022-10-31T13:18:53;19.20;;;6.40;;
31464;SDS011;18089;47.428;15.006;2022-10-31T13:21:27;21.02;;;6.82;;
31464;SDS011;18089;47.428;15.006;2022-10-31T13:24:02;21.33;;;7.25;;
31464;SDS011;18089;47.428;15.006;2022-10-31T13:26:38;19.48;;;7.07;;
31464;SDS011;18089;47.428;15.006;2022-10-31T13:29:15;22.48;;;7.07;;
31464;SDS011;18089;47.428;15.006;2022-10-31T13:31:50;19.48;;;6.20;;
31464;SDS011;18089;47.428;15.006;2022-10-31T13:34:23;25.35;;;6.75;;
31464;SDS011;18089;47.428;15.006;2022-10-31T13:36:59;19.55;;;6.22;;
31464;SDS011;18089;47.428;15.006;2022-10-31T13:39:41;15.90;;;6.07;;
31464;SDS011;18089;47.428;15.006;2022-10-31T13:42:40;21.52;;;6.35;;
31464;SDS011;18089;47.428;15.006;2022-10-31T13:45:18;23.30;;;10.50;;
31464;SDS011;18089;47.428;15.006;2022-10-31T13:47:56;16.63;;;5.88;;
31464;SDS011;18089;47.428;15.006;2022-10-31T13:50:29;17.35;;;5.80;;
31464;SDS011;18089;47.428;15.006;2022-10-31T13:53:08;17.00;;;6.28;;
31464;SDS011;18089;47.428;15.006;2022-10-31T13:55:46;21.83;;;7.00;;
31464;SDS011;18089;47.428;15.006;2022-10-31T13:58:21;21.45;;;6.63;;
31464;SDS011;18089;47.428;15.006;2022-10-31T14:00:58;19.73;;;6.47;;
31464;SDS011;18089;47.428;15.006;2022-10-31T14:03:34;15.10;;;5.28;;
31464;SDS011;18089;47.428;15.006;2022-10-31T14:06:08;21.83;;;5.38;;
31464;SDS011;18089;47.428;15.006;2022-10-31T14:08:43;15.98;;;5.20;;
31464;SDS011;18089;47.428;15.006;2022-10-31T14:11:21;17.75;;;10.45;;
31464;SDS011;18089;47.428;15.006;2022-10-31T14:13:58;19.90;;;8.65;;
31464;SDS011;18089;47.428;15.006;2022-10-31T14:16:31;18.10;;;6.28;;
31464;SDS011;18089;47.428;15.006;2022-10-31T14:19:12;14.90;;;5.68;;
31464;SDS011;18089;47.428;15.006;2022-10-31T14:21:46;17.23;;;6.95;;
31464;SDS011;18089;47.428;15.006;2022-10-31T14:24:33;18.10;;;5.38;;
31464;SDS011;18089;47.428;15.006;2022-10-31T14:30:09;17.67;;;6.32;;
31464;SDS011;18089;47.428;15.006;2022-10-31T14:32:48;15.55;;;5.22;;
31464;SDS011;18089;47.428;15.006;2022-10-31T14:35:24;14.63;;;5.47;;
31464;SDS011;18089;47.428;15.006;2022-10-31T14:47:31;18.65;;;5.82;;
31464;SDS011;18089;47.428;15.006;2022-10-31T14:50:12;21.42;;;7.40;;
31464;SDS011;18089;47.428;15.006;2022-10-31T14:52:52;24.55;;;5.80;;
31464;SDS011;18089;47.428;15.006;2022-10-31T14:55:26;13.90;;;5.95;;
31464;SDS011;18089;47.428;15.006;2022-10-31T14:57:59;14.48;;;5.63;;
31464;SDS011;18089;47.428;15.006;2022-10-31T15:00:32;17.38;;;5.20;;
31464;SDS011;18089;47.428;15.006;2022-10-31T15:03:08;14.18;;;4.97;;
31464;SDS011;18089;47.428;15.006;2022-10-31T15:05:45;18.75;;;5.05;;
31464;SDS011;18089;47.428;15.006;2022-10-31T15:08:31;14.27;;;5.95;;
31464;SDS011;18089;47.428;15.006;2022-10-31T15:11:11;14.20;;;6.63;;
31464;SDS011;18089;47.428;15.006;2022-10-31T15:13:44;15.15;;;6.78;;
31464;SDS011;18089;47.428;15.006;2022-10-31T15:16:19;20.88;;;7.70;;
31464;SDS011;18089;47.428;15.006;2022-10-31T15:18:54;30.08;;;14.88;;
31464;SDS011;18089;47.428;15.006;2022-10-31T15:21:27;103.18;;;59.58;;
31464;SDS011;18089;47.428;15.006;2022-10-31T15:24:00;25.73;;;10.90;;
31464;SDS011;18089;47.428;15.006;2022-10-31T15:26:35;19.58;;;8.80;;